sensor_id;sensor_type;location;lat;lon;timestamp;P1;durP1;ratioP1;P2;durP2;ratioP2
21816;SDS011;13247;47.504;7.382;2023-03-21T00:00:13;3.35;;;2.40;;
21816;SDS011;13247;47.504;7.382;2023-03-21T00:02:58;6.75;;;2.20;;
21816;SDS011;13247;47.504;7.382;2023-03-21T00:05:44;4.88;;;2.00;;
21816;SDS011;13247;47.504;7.382;2023-03-21T00:08:32;5.38;;;2.40;;
21816;SDS011;13247;47.504;7.382;2023-03-21T00:11:17;6.25;;;3.40;;
21816;SDS011;13247;47.504;7.382;2023-03-21T00:14:01;4.50;;;2.63;;
21816;SDS011;13247;47.504;7.382;2023-03-21T00:16:47;5.32;;;2.58;;
21816;SDS011;13247;47.504;7.382;2023-03-21T00:19:35;4.75;;;2.33;;
21816;SDS011;13247;47.504;7.382;2023-03-21T00:22:21;6.03;;;1.83;;
21816;SDS011;13247;47.504;7.382;2023-03-21T00:25:06;6.68;;;2.20;;
21816;SDS011;13247;47.504;7.382;2023-03-21T00:27:53;2.38;;;2.00;;
21816;SDS011;13247;47.504;7.382;2023-03-21T00:30:38;3.45;;;2.05;;
21816;SDS011;13247;47.504;7.382;2023-03-21T00:33:23;6.80;;;2.35;;
21816;SDS011;13247;47.504;7.382;2023-03-21T00:36:08;5.43;;;2.40;;
21816;SDS011;13247;47.504;7.382;2023-03-21T00:38:55;5.07;;;3.05;;
21816;SDS011;13247;47.504;7.382;2023-03-21T00:41:39;3.15;;;1.98;;
21816;SDS011;13247;47.504;7.382;2023-03-21T00:44:24;4.38;;;2.60;;
21816;SDS011;13247;47.504;7.382;2023-03-21T00:47:10;3.47;;;2.00;;
21816;SDS011;13247;47.504;7.382;2023-03-21T00:49:55;3.20;;;2.00;;
21816;SDS011;13247;47.504;7.382;2023-03-21T00:52:39;3.15;;;2.10;;
21816;SDS011;13247;47.504;7.382;2023-03-21T00:55:24;6.47;;;2.30;;
21816;SDS011;13247;47.504;7.382;2023-03-21T00:58:09;2.63;;;2.00;;
21816;SDS011;13247;47.504;7.382;2023-03-21T01:00:54;3.03;;;2.30;;
21816;SDS011;13247;47.504;7.382;2023-03-21T01:03:39;5.00;;;2.30;;
21816;SDS011;13247;47.504;7.382;2023-03-21T01:06:35;7.10;;;4.43;;
21816;SDS011;13247;47.504;7.382;2023-03-21T01:09:23;7.15;;;4.03;;
21816;SDS011;13247;47.504;7.382;2023-03-21T01:12:08;2.80;;;2.08;;
21816;SDS011;13247;47.504;7.382;2023-03-21T01:14:54;8.07;;;2.78;;
21816;SDS011;13247;47.504;7.382;2023-03-21T01:17:39;3.28;;;2.60;;
21816;SDS011;13247;47.504;7.382;2023-03-21T01:20:23;7.00;;;3.97;;
21816;SDS011;13247;47.504;7.382;2023-03-21T01:23:08;7.70;;;2.88;;
21816;SDS011;13247;47.504;7.382;2023-03-21T01:25:55;4.78;;;2.50;;
21816;SDS011;13247;47.504;7.382;2023-03-21T01:28:41;6.72;;;2.35;;
21816;SDS011;13247;47.504;7.382;2023-03-21T01:31:26;2.58;;;1.80;;
21816;SDS011;13247;47.504;7.382;2023-03-21T01:34:10;3.08;;;1.90;;
21816;SDS011;13247;47.504;7.382;2023-03-21T01:36:55;3.65;;;1.90;;
21816;SDS011;13247;47.504;7.382;2023-03-21T01:39:39;2.53;;;1.60;;
21816;SDS011;13247;47.504;7.382;2023-03-21T01:42:24;3.90;;;1.70;;
21816;SDS011;13247;47.504;7.382;2023-03-21T01:48:31;6.50;;;2.30;;
21816;SDS011;13247;47.504;7.382;2023-03-21T01:51:17;4.40;;;1.80;;
21816;SDS011;13247;47.504;7.382;2023-03-21T01:54:04;4.85;;;2.85;;
21816;SDS011;13247;47.504;7.382;2023-03-21T01:56:55;7.38;;;2.58;;
21816;SDS011;13247;47.504;7.382;2023-03-21T01:59:45;5.97;;;2.60;;
21816;SDS011;13247;47.504;7.382;2023-03-21T02:02:33;5.93;;;2.83;;
21816;SDS011;13247;47.504;7.382;2023-03-21T02:05:21;4.60;;;2.75;;
21816;SDS011;13247;47.504;7.382;2023-03-21T02:08:16;3.55;;;2.30;;
21816;SDS011;13247;47.504;7.382;2023-03-21T02:11:01;3.50;;;1.98;;
21816;SDS011;13247;47.504;7.382;2023-03-21T02:13:46;2.47;;;1.75;;
21816;SDS011;13247;47.504;7.382;2023-03-21T02:16:41;2.45;;;1.90;;
21816;SDS011;13247;47.504;7.382;2023-03-21T02:32:04;2.45;;;1.60;;
21816;SDS011;13247;47.504;7.382;2023-03-21T02:38:30;8.38;;;4.38;;
21816;SDS011;13247;47.504;7.382;2023-03-21T02:41:47;6.88;;;2.80;;
21816;SDS011;13247;47.504;7.382;2023-03-21T02:45:02;3.38;;;2.38;;
21816;SDS011;13247;47.504;7.382;2023-03-21T02:48:08;4.78;;;2.25;;
21816;SDS011;13247;47.504;7.382;2023-03-21T02:50:57;6.35;;;2.58;;
21816;SDS011;13247;47.504;7.382;2023-03-21T02:53:46;3.33;;;2.05;;
21816;SDS011;13247;47.504;7.382;2023-03-21T02:56:38;4.25;;;1.60;;
21816;SDS011;13247;47.504;7.382;2023-03-21T02:59:25;5.70;;;1.98;;
21816;SDS011;13247;47.504;7.382;2023-03-21T03:02:11;2.60;;;1.23;;
21816;SDS011;13247;47.504;7.382;2023-03-21T03:04:57;2.03;;;1.65;;
21816;SDS011;13247;47.504;7.382;2023-03-21T03:08:07;2.08;;;1.60;;
21816;SDS011;13247;47.504;7.382;2023-03-21T03:20:26;1.98;;;1.40;;
21816;SDS011;13247;47.504;7.382;2023-03-21T03:23:29;3.63;;;1.63;;
21816;SDS011;13247;47.504;7.382;2023-03-21T03:26:24;2.85;;;2.10;;
21816;SDS011;13247;47.504;7.382;2023-03-21T03:29:13;3.30;;;1.80;;
21816;SDS011;13247;47.504;7.382;2023-03-21T03:32:05;2.33;;;1.67;;
21816;SDS011;13247;47.504;7.382;2023-03-21T03:35:10;2.13;;;1.70;;
21816;SDS011;13247;47.504;7.382;2023-03-21T03:37:59;2.67;;;1.67;;
21816;SDS011;13247;47.504;7.382;2023-03-21T03:40:48;1.55;;;1.45;;
21816;SDS011;13247;47.504;7.382;2023-03-21T03:43:44;2.55;;;2.08;;
21816;SDS011;13247;47.504;7.382;2023-03-21T03:46:37;1.60;;;1.50;;
21816;SDS011;13247;47.504;7.382;2023-03-21T03:49:31;2.47;;;1.65;;
21816;SDS011;13247;47.504;7.382;2023-03-21T03:52:21;1.67;;;1.58;;
21816;SDS011;13247;47.504;7.382;2023-03-21T03:55:15;2.38;;;1.30;;
21816;SDS011;13247;47.504;7.382;2023-03-21T03:58:01;2.58;;;1.33;;
21816;SDS011;13247;47.504;7.382;2023-03-21T04:00:46;3.30;;;1.75;;
21816;SDS011;13247;47.504;7.382;2023-03-21T04:03:32;4.15;;;1.60;;
21816;SDS011;13247;47.504;7.382;2023-03-21T04:06:20;3.05;;;1.40;;
21816;SDS011;13247;47.504;7.382;2023-03-21T04:09:04;1.60;;;1.50;;
21816;SDS011;13247;47.504;7.382;2023-03-21T04:11:50;4.82;;;1.80;;
21816;SDS011;13247;47.504;7.382;2023-03-21T04:14:35;4.65;;;1.77;;
21816;SDS011;13247;47.504;7.382;2023-03-21T04:17:19;2.40;;;1.80;;
21816;SDS011;13247;47.504;7.382;2023-03-21T04:20:05;3.17;;;2.28;;
21816;SDS011;13247;47.504;7.382;2023-03-21T04:22:53;5.88;;;2.40;;
21816;SDS011;13247;47.504;7.382;2023-03-21T04:25:39;3.38;;;1.83;;
21816;SDS011;13247;47.504;7.382;2023-03-21T04:28:23;4.45;;;2.22;;
21816;SDS011;13247;47.504;7.382;2023-03-21T04:31:08;3.45;;;1.90;;
21816;SDS011;13247;47.504;7.382;2023-03-21T04:33:53;5.25;;;1.88;;
21816;SDS011;13247;47.504;7.382;2023-03-21T04:36:38;2.15;;;1.80;;
21816;SDS011;13247;47.504;7.382;2023-03-21T04:39:29;3.33;;;1.40;;
21816;SDS011;13247;47.504;7.382;2023-03-21T04:42:14;2.28;;;1.70;;
21816;SDS011;13247;47.504;7.382;2023-03-21T04:45:03;1.95;;;1.60;;
21816;SDS011;13247;47.504;7.382;2023-03-21T04:47:48;1.55;;;1.45;;
21816;SDS011;13247;47.504;7.382;2023-03-21T04:50:33;1.90;;;1.40;;
21816;SDS011;13247;47.504;7.382;2023-03-21T04:53:18;1.73;;;1.33;;
21816;SDS011;13247;47.504;7.382;2023-03-21T04:56:02;5.93;;;1.45;;
21816;SDS011;13247;47.504;7.382;2023-03-21T04:58:48;2.70;;;1.63;;
21816;SDS011;13247;47.504;7.382;2023-03-21T05:01:32;3.83;;;1.45;;
21816;SDS011;13247;47.504;7.382;2023-03-21T05:04:17;3.72;;;2.88;;
21816;SDS011;13247;47.504;7.382;2023-03-21T05:07:02;5.63;;;4.05;;
21816;SDS011;13247;47.504;7.382;2023-03-21T05:09:46;6.57;;;3.10;;
21816;SDS011;13247;47.504;7.382;2023-03-21T05:12:31;15.88;;;8.02;;
21816;SDS011;13247;47.504;7.382;2023-03-21T05:15:16;13.25;;;6.70;;
21816;SDS011;13247;47.504;7.382;2023-03-21T05:18:01;14.68;;;7.70;;
21816;SDS011;13247;47.504;7.382;2023-03-21T05:20:53;14.48;;;7.07;;
21816;SDS011;13247;47.504;7.382;2023-03-21T05:23:39;12.32;;;5.78;;
21816;SDS011;13247;47.504;7.382;2023-03-21T05:26:23;9.43;;;4.45;;
21816;SDS011;13247;47.504;7.382;2023-03-21T05:29:08;7.40;;;3.83;;
21816;SDS011;13247;47.504;7.382;2023-03-21T05:31:54;10.68;;;4.25;;
21816;SDS011;13247;47.504;7.382;2023-03-21T05:34:39;10.50;;;5.50;;
21816;SDS011;13247;47.504;7.382;2023-03-21T05:37:24;19.40;;;8.23;;
21816;SDS011;13247;47.504;7.382;2023-03-21T05:40:08;15.35;;;6.13;;
21816;SDS011;13247;47.504;7.382;2023-03-21T05:42:54;2.53;;;2.10;;
21816;SDS011;13247;47.504;7.382;2023-03-21T05:45:39;3.45;;;2.13;;
21816;SDS011;13247;47.504;7.382;2023-03-21T05:48:24;2.45;;;1.83;;
21816;SDS011;13247;47.504;7.382;2023-03-21T05:51:08;3.05;;;1.77;;
21816;SDS011;13247;47.504;7.382;2023-03-21T05:53:53;3.03;;;2.00;;
21816;SDS011;13247;47.504;7.382;2023-03-21T05:56:37;2.83;;;2.10;;
21816;SDS011;13247;47.504;7.382;2023-03-21T05:59:22;2.78;;;2.00;;
21816;SDS011;13247;47.504;7.382;2023-03-21T06:02:06;3.95;;;2.53;;
21816;SDS011;13247;47.504;7.382;2023-03-21T06:04:51;8.10;;;3.33;;
21816;SDS011;13247;47.504;7.382;2023-03-21T06:07:36;3.72;;;3.10;;
21816;SDS011;13247;47.504;7.382;2023-03-21T06:10:22;3.90;;;2.40;;
21816;SDS011;13247;47.504;7.382;2023-03-21T06:13:06;5.97;;;2.55;;
21816;SDS011;13247;47.504;7.382;2023-03-21T06:15:51;4.82;;;2.40;;
21816;SDS011;13247;47.504;7.382;2023-03-21T06:18:35;4.20;;;2.33;;
21816;SDS011;13247;47.504;7.382;2023-03-21T06:21:20;6.05;;;2.10;;
21816;SDS011;13247;47.504;7.382;2023-03-21T06:24:05;2.47;;;1.95;;
21816;SDS011;13247;47.504;7.382;2023-03-21T06:26:50;2.83;;;2.10;;
21816;SDS011;13247;47.504;7.382;2023-03-21T06:29:35;4.07;;;1.85;;
21816;SDS011;13247;47.504;7.382;2023-03-21T06:32:19;10.02;;;2.50;;
21816;SDS011;13247;47.504;7.382;2023-03-21T06:35:04;7.15;;;3.25;;
21816;SDS011;13247;47.504;7.382;2023-03-21T06:37:49;9.73;;;2.92;;
21816;SDS011;13247;47.504;7.382;2023-03-21T06:40:33;4.28;;;2.85;;
21816;SDS011;13247;47.504;7.382;2023-03-21T06:43:18;5.53;;;4.03;;
21816;SDS011;13247;47.504;7.382;2023-03-21T06:46:02;8.32;;;4.85;;
21816;SDS011;13247;47.504;7.382;2023-03-21T06:48:47;7.55;;;4.43;;
21816;SDS011;13247;47.504;7.382;2023-03-21T06:51:33;8.35;;;4.70;;
21816;SDS011;13247;47.504;7.382;2023-03-21T06:54:18;9.38;;;4.15;;
21816;SDS011;13247;47.504;7.382;2023-03-21T06:57:03;11.55;;;5.50;;
21816;SDS011;13247;47.504;7.382;2023-03-21T06:59:48;9.85;;;5.05;;
21816;SDS011;13247;47.504;7.382;2023-03-21T07:02:33;9.38;;;4.10;;
21816;SDS011;13247;47.504;7.382;2023-03-21T07:05:17;11.77;;;5.70;;
21816;SDS011;13247;47.504;7.382;2023-03-21T07:08:02;11.93;;;4.90;;
21816;SDS011;13247;47.504;7.382;2023-03-21T07:10:47;9.38;;;4.10;;
21816;SDS011;13247;47.504;7.382;2023-03-21T07:13:32;8.02;;;4.63;;
21816;SDS011;13247;47.504;7.382;2023-03-21T07:16:17;6.57;;;4.00;;
21816;SDS011;13247;47.504;7.382;2023-03-21T07:19:04;5.80;;;3.92;;
21816;SDS011;13247;47.504;7.382;2023-03-21T07:21:49;13.93;;;3.83;;
21816;SDS011;13247;47.504;7.382;2023-03-21T07:24:34;7.70;;;4.05;;
21816;SDS011;13247;47.504;7.382;2023-03-21T07:27:19;8.25;;;4.28;;
21816;SDS011;13247;47.504;7.382;2023-03-21T07:30:04;6.95;;;4.45;;
21816;SDS011;13247;47.504;7.382;2023-03-21T07:32:49;6.15;;;4.28;;
21816;SDS011;13247;47.504;7.382;2023-03-21T07:35:35;6.70;;;4.20;;
21816;SDS011;13247;47.504;7.382;2023-03-21T07:38:20;6.55;;;3.90;;
21816;SDS011;13247;47.504;7.382;2023-03-21T07:41:05;10.95;;;3.47;;
21816;SDS011;13247;47.504;7.382;2023-03-21T07:43:50;5.60;;;3.70;;
21816;SDS011;13247;47.504;7.382;2023-03-21T07:46:34;10.48;;;5.63;;
21816;SDS011;13247;47.504;7.382;2023-03-21T07:49:19;12.13;;;6.00;;
21816;SDS011;13247;47.504;7.382;2023-03-21T07:52:04;8.25;;;4.68;;
21816;SDS011;13247;47.504;7.382;2023-03-21T07:54:50;6.65;;;3.67;;
21816;SDS011;13247;47.504;7.382;2023-03-21T07:57:35;5.53;;;3.13;;
21816;SDS011;13247;47.504;7.382;2023-03-21T08:00:20;5.60;;;3.28;;
21816;SDS011;13247;47.504;7.382;2023-03-21T08:03:08;5.80;;;2.97;;
21816;SDS011;13247;47.504;7.382;2023-03-21T08:05:53;14.20;;;3.55;;
21816;SDS011;13247;47.504;7.382;2023-03-21T08:08:38;3.95;;;2.90;;
21816;SDS011;13247;47.504;7.382;2023-03-21T08:11:23;5.95;;;2.55;;
21816;SDS011;13247;47.504;7.382;2023-03-21T08:14:08;3.58;;;2.70;;
21816;SDS011;13247;47.504;7.382;2023-03-21T08:16:52;3.85;;;2.90;;
21816;SDS011;13247;47.504;7.382;2023-03-21T08:19:37;3.30;;;2.30;;
21816;SDS011;13247;47.504;7.382;2023-03-21T08:22:21;2.50;;;2.10;;
21816;SDS011;13247;47.504;7.382;2023-03-21T08:25:06;3.25;;;2.55;;
21816;SDS011;13247;47.504;7.382;2023-03-21T08:27:53;4.28;;;2.22;;
21816;SDS011;13247;47.504;7.382;2023-03-21T08:30:38;5.93;;;1.90;;
21816;SDS011;13247;47.504;7.382;2023-03-21T08:33:23;8.70;;;2.55;;
21816;SDS011;13247;47.504;7.382;2023-03-21T08:36:08;4.03;;;1.92;;
21816;SDS011;13247;47.504;7.382;2023-03-21T08:38:53;4.03;;;2.20;;
21816;SDS011;13247;47.504;7.382;2023-03-21T08:41:39;4.15;;;1.98;;
21816;SDS011;13247;47.504;7.382;2023-03-21T08:44:24;4.85;;;2.97;;
21816;SDS011;13247;47.504;7.382;2023-03-21T08:47:09;4.35;;;2.38;;
21816;SDS011;13247;47.504;7.382;2023-03-21T08:49:54;3.22;;;2.38;;
21816;SDS011;13247;47.504;7.382;2023-03-21T08:52:39;5.90;;;2.70;;
21816;SDS011;13247;47.504;7.382;2023-03-21T08:55:24;11.88;;;2.40;;
21816;SDS011;13247;47.504;7.382;2023-03-21T08:58:09;9.70;;;1.95;;
21816;SDS011;13247;47.504;7.382;2023-03-21T09:00:53;3.70;;;2.20;;
21816;SDS011;13247;47.504;7.382;2023-03-21T09:03:38;3.08;;;2.08;;
21816;SDS011;13247;47.504;7.382;2023-03-21T09:06:23;3.63;;;2.58;;
21816;SDS011;13247;47.504;7.382;2023-03-21T09:09:09;3.53;;;2.50;;
21816;SDS011;13247;47.504;7.382;2023-03-21T09:11:54;8.35;;;2.95;;
21816;SDS011;13247;47.504;7.382;2023-03-21T09:14:40;3.33;;;2.80;;
21816;SDS011;13247;47.504;7.382;2023-03-21T09:17:24;3.28;;;2.50;;
21816;SDS011;13247;47.504;7.382;2023-03-21T09:20:10;2.22;;;1.98;;
21816;SDS011;13247;47.504;7.382;2023-03-21T09:23:01;4.20;;;2.10;;
21816;SDS011;13247;47.504;7.382;2023-03-21T09:25:46;4.70;;;2.20;;
21816;SDS011;13247;47.504;7.382;2023-03-21T09:28:31;5.13;;;2.30;;
21816;SDS011;13247;47.504;7.382;2023-03-21T09:31:18;2.42;;;1.85;;
21816;SDS011;13247;47.504;7.382;2023-03-21T09:34:05;2.50;;;2.00;;
21816;SDS011;13247;47.504;7.382;2023-03-21T09:36:50;2.97;;;1.70;;
21816;SDS011;13247;47.504;7.382;2023-03-21T09:39:39;3.53;;;1.60;;
21816;SDS011;13247;47.504;7.382;2023-03-21T09:48:08;3.45;;;1.77;;
21816;SDS011;13247;47.504;7.382;2023-03-21T09:51:09;3.17;;;1.90;;
21816;SDS011;13247;47.504;7.382;2023-03-21T09:53:58;4.10;;;1.70;;
21816;SDS011;13247;47.504;7.382;2023-03-21T09:56:52;3.10;;;1.80;;
21816;SDS011;13247;47.504;7.382;2023-03-21T09:59:38;1.70;;;1.60;;
21816;SDS011;13247;47.504;7.382;2023-03-21T10:05:25;2.28;;;1.70;;
21816;SDS011;13247;47.504;7.382;2023-03-21T10:08:21;1.83;;;1.60;;
21816;SDS011;13247;47.504;7.382;2023-03-21T10:11:12;7.35;;;1.92;;
21816;SDS011;13247;47.504;7.382;2023-03-21T10:14:15;3.15;;;1.80;;
21816;SDS011;13247;47.504;7.382;2023-03-21T10:20:33;3.72;;;2.17;;
21816;SDS011;13247;47.504;7.382;2023-03-21T10:23:21;6.55;;;1.90;;
21816;SDS011;13247;47.504;7.382;2023-03-21T10:26:09;5.95;;;1.25;;
21816;SDS011;13247;47.504;7.382;2023-03-21T10:28:57;1.73;;;1.35;;
21816;SDS011;13247;47.504;7.382;2023-03-21T10:31:44;2.33;;;1.20;;
21816;SDS011;13247;47.504;7.382;2023-03-21T10:34:41;4.50;;;1.25;;
21816;SDS011;13247;47.504;7.382;2023-03-21T10:37:31;2.13;;;1.00;;
21816;SDS011;13247;47.504;7.382;2023-03-21T10:40:18;2.53;;;1.20;;
21816;SDS011;13247;47.504;7.382;2023-03-21T10:43:17;1.30;;;1.20;;
21816;SDS011;13247;47.504;7.382;2023-03-21T10:46:15;1.30;;;1.20;;
21816;SDS011;13247;47.504;7.382;2023-03-21T10:49:06;2.45;;;1.10;;
21816;SDS011;13247;47.504;7.382;2023-03-21T10:51:55;2.25;;;1.42;;
21816;SDS011;13247;47.504;7.382;2023-03-21T10:54:41;1.48;;;1.20;;
21816;SDS011;13247;47.504;7.382;2023-03-21T10:57:27;3.67;;;1.17;;
21816;SDS011;13247;47.504;7.382;2023-03-21T11:00:17;1.63;;;1.25;;
21816;SDS011;13247;47.504;7.382;2023-03-21T11:03:04;1.55;;;1.00;;
21816;SDS011;13247;47.504;7.382;2023-03-21T11:05:54;2.00;;;1.02;;
21816;SDS011;13247;47.504;7.382;2023-03-21T11:09:13;1.30;;;1.20;;
21816;SDS011;13247;47.504;7.382;2023-03-21T11:12:01;2.05;;;0.90;;
21816;SDS011;13247;47.504;7.382;2023-03-21T11:14:56;1.10;;;1.00;;
21816;SDS011;13247;47.504;7.382;2023-03-21T11:17:57;1.27;;;1.02;;
21816;SDS011;13247;47.504;7.382;2023-03-21T11:20:50;3.30;;;1.02;;
21816;SDS011;13247;47.504;7.382;2023-03-21T11:23:41;1.38;;;0.85;;
21816;SDS011;13247;47.504;7.382;2023-03-21T11:26:32;1.30;;;0.85;;
21816;SDS011;13247;47.504;7.382;2023-03-21T11:32:25;1.30;;;1.08;;
21816;SDS011;13247;47.504;7.382;2023-03-21T11:35:36;1.02;;;0.90;;
21816;SDS011;13247;47.504;7.382;2023-03-21T11:38:26;1.05;;;0.80;;
21816;SDS011;13247;47.504;7.382;2023-03-21T11:41:21;1.08;;;0.93;;
21816;SDS011;13247;47.504;7.382;2023-03-21T11:44:22;1.50;;;1.00;;
21816;SDS011;13247;47.504;7.382;2023-03-21T11:47:13;1.88;;;1.48;;
21816;SDS011;13247;47.504;7.382;2023-03-21T11:49:57;1.55;;;1.33;;
21816;SDS011;13247;47.504;7.382;2023-03-21T11:53:07;1.05;;;0.95;;
21816;SDS011;13247;47.504;7.382;2023-03-21T11:56:06;1.23;;;0.90;;
21816;SDS011;13247;47.504;7.382;2023-03-21T11:59:14;1.88;;;1.13;;
21816;SDS011;13247;47.504;7.382;2023-03-21T12:02:22;1.20;;;0.90;;
21816;SDS011;13247;47.504;7.382;2023-03-21T12:05:34;1.10;;;1.00;;
21816;SDS011;13247;47.504;7.382;2023-03-21T12:11:40;1.13;;;1.00;;
21816;SDS011;13247;47.504;7.382;2023-03-21T12:14:45;3.00;;;1.52;;
21816;SDS011;13247;47.504;7.382;2023-03-21T12:20:43;2.38;;;0.82;;
21816;SDS011;13247;47.504;7.382;2023-03-21T12:29:59;1.77;;;0.95;;
21816;SDS011;13247;47.504;7.382;2023-03-21T12:33:13;1.70;;;1.10;;
21816;SDS011;13247;47.504;7.382;2023-03-21T12:39:26;1.25;;;1.00;;
21816;SDS011;13247;47.504;7.382;2023-03-21T12:45:54;1.40;;;1.08;;
21816;SDS011;13247;47.504;7.382;2023-03-21T12:51:49;5.93;;;3.17;;
21816;SDS011;13247;47.504;7.382;2023-03-21T12:54:41;3.00;;;1.48;;
21816;SDS011;13247;47.504;7.382;2023-03-21T12:58:33;3.65;;;1.65;;
21816;SDS011;13247;47.504;7.382;2023-03-21T13:00:57;2.63;;;1.35;;
21816;SDS011;13247;47.504;7.382;2023-03-21T13:04:07;2.70;;;1.50;;
21816;SDS011;13247;47.504;7.382;2023-03-21T13:09:46;1.45;;;1.08;;
21816;SDS011;13247;47.504;7.382;2023-03-21T13:12:37;2.75;;;1.45;;
21816;SDS011;13247;47.504;7.382;2023-03-21T13:18:47;3.80;;;1.73;;
21816;SDS011;13247;47.504;7.382;2023-03-21T13:24:56;1.60;;;1.10;;
21816;SDS011;13247;47.504;7.382;2023-03-21T13:27:50;2.45;;;1.15;;
21816;SDS011;13247;47.504;7.382;2023-03-21T13:30:43;3.78;;;1.52;;
21816;SDS011;13247;47.504;7.382;2023-03-21T13:33:29;9.63;;;2.15;;
21816;SDS011;13247;47.504;7.382;2023-03-21T13:36:21;1.25;;;0.80;;
21816;SDS011;13247;47.504;7.382;2023-03-21T13:39:28;2.00;;;1.08;;
21816;SDS011;13247;47.504;7.382;2023-03-21T13:42:19;1.92;;;1.10;;
21816;SDS011;13247;47.504;7.382;2023-03-21T13:45:08;1.63;;;1.00;;
21816;SDS011;13247;47.504;7.382;2023-03-21T13:47:56;2.45;;;1.42;;
21816;SDS011;13247;47.504;7.382;2023-03-21T13:50:52;2.40;;;1.00;;
21816;SDS011;13247;47.504;7.382;2023-03-21T13:53:47;6.65;;;1.42;;
21816;SDS011;13247;47.504;7.382;2023-03-21T13:59:42;2.88;;;1.33;;
21816;SDS011;13247;47.504;7.382;2023-03-21T14:05:22;1.00;;;0.90;;
21816;SDS011;13247;47.504;7.382;2023-03-21T14:08:09;1.23;;;0.90;;
21816;SDS011;13247;47.504;7.382;2023-03-21T14:11:00;1.67;;;1.05;;
21816;SDS011;13247;47.504;7.382;2023-03-21T14:13:49;2.25;;;1.02;;
21816;SDS011;13247;47.504;7.382;2023-03-21T14:16:36;2.28;;;1.40;;
21816;SDS011;13247;47.504;7.382;2023-03-21T14:19:30;1.23;;;1.13;;
21816;SDS011;13247;47.504;7.382;2023-03-21T14:22:15;2.92;;;1.10;;
21816;SDS011;13247;47.504;7.382;2023-03-21T14:25:00;1.50;;;1.20;;
21816;SDS011;13247;47.504;7.382;2023-03-21T14:27:47;1.45;;;1.10;;
21816;SDS011;13247;47.504;7.382;2023-03-21T14:30:36;1.48;;;1.20;;
21816;SDS011;13247;47.504;7.382;2023-03-21T14:33:38;2.05;;;1.00;;
21816;SDS011;13247;47.504;7.382;2023-03-21T14:36:29;3.60;;;1.40;;
21816;SDS011;13247;47.504;7.382;2023-03-21T14:39:21;2.25;;;1.20;;
21816;SDS011;13247;47.504;7.382;2023-03-21T14:42:08;4.38;;;1.80;;
21816;SDS011;13247;47.504;7.382;2023-03-21T14:44:56;3.00;;;1.10;;
21816;SDS011;13247;47.504;7.382;2023-03-21T14:47:52;2.20;;;1.40;;
21816;SDS011;13247;47.504;7.382;2023-03-21T14:50:40;5.43;;;2.08;;
21816;SDS011;13247;47.504;7.382;2023-03-21T14:53:37;3.70;;;1.63;;
21816;SDS011;13247;47.504;7.382;2023-03-21T14:56:24;3.70;;;1.38;;
21816;SDS011;13247;47.504;7.382;2023-03-21T14:59:10;1.63;;;1.20;;
21816;SDS011;13247;47.504;7.382;2023-03-21T15:02:00;2.45;;;1.35;;
21816;SDS011;13247;47.504;7.382;2023-03-21T15:04:51;1.25;;;1.00;;
21816;SDS011;13247;47.504;7.382;2023-03-21T15:07:39;1.15;;;1.02;;
21816;SDS011;13247;47.504;7.382;2023-03-21T15:10:25;1.95;;;0.90;;
21816;SDS011;13247;47.504;7.382;2023-03-21T15:13:16;1.40;;;1.05;;
21816;SDS011;13247;47.504;7.382;2023-03-21T15:16:03;1.65;;;1.27;;
21816;SDS011;13247;47.504;7.382;2023-03-21T15:18:48;3.72;;;1.30;;
21816;SDS011;13247;47.504;7.382;2023-03-21T15:21:34;4.35;;;1.52;;
21816;SDS011;13247;47.504;7.382;2023-03-21T15:24:28;3.47;;;1.02;;
21816;SDS011;13247;47.504;7.382;2023-03-21T15:27:19;8.02;;;4.13;;
21816;SDS011;13247;47.504;7.382;2023-03-21T15:30:17;6.13;;;3.58;;
21816;SDS011;13247;47.504;7.382;2023-03-21T15:33:08;3.05;;;1.80;;
21816;SDS011;13247;47.504;7.382;2023-03-21T15:35:56;3.65;;;1.70;;
21816;SDS011;13247;47.504;7.382;2023-03-21T15:38:42;2.17;;;1.50;;
21816;SDS011;13247;47.504;7.382;2023-03-21T15:41:31;3.20;;;1.33;;
21816;SDS011;13247;47.504;7.382;2023-03-21T15:44:16;2.25;;;1.50;;
21816;SDS011;13247;47.504;7.382;2023-03-21T15:47:07;5.15;;;1.70;;
21816;SDS011;13247;47.504;7.382;2023-03-21T15:49:57;4.03;;;2.15;;
21816;SDS011;13247;47.504;7.382;2023-03-21T15:52:44;1.67;;;1.15;;
21816;SDS011;13247;47.504;7.382;2023-03-21T15:55:41;5.10;;;3.08;;
21816;SDS011;13247;47.504;7.382;2023-03-21T15:58:35;7.72;;;4.10;;
21816;SDS011;13247;47.504;7.382;2023-03-21T16:01:24;3.35;;;2.70;;
21816;SDS011;13247;47.504;7.382;2023-03-21T16:04:09;3.78;;;2.28;;
21816;SDS011;13247;47.504;7.382;2023-03-21T16:06:58;1.80;;;1.50;;
21816;SDS011;13247;47.504;7.382;2023-03-21T16:09:45;4.55;;;1.35;;
21816;SDS011;13247;47.504;7.382;2023-03-21T16:12:30;2.50;;;1.52;;
21816;SDS011;13247;47.504;7.382;2023-03-21T16:15:16;2.20;;;1.40;;
21816;SDS011;13247;47.504;7.382;2023-03-21T16:18:01;2.67;;;1.50;;
21816;SDS011;13247;47.504;7.382;2023-03-21T16:20:49;2.00;;;1.63;;
21816;SDS011;13247;47.504;7.382;2023-03-21T16:23:36;2.83;;;1.20;;
21816;SDS011;13247;47.504;7.382;2023-03-21T16:26:25;2.88;;;1.45;;
21816;SDS011;13247;47.504;7.382;2023-03-21T16:29:13;1.30;;;1.20;;
21816;SDS011;13247;47.504;7.382;2023-03-21T16:31:59;1.48;;;1.33;;
21816;SDS011;13247;47.504;7.382;2023-03-21T16:34:48;2.25;;;1.55;;
21816;SDS011;13247;47.504;7.382;2023-03-21T16:37:36;4.10;;;2.00;;
21816;SDS011;13247;47.504;7.382;2023-03-21T16:40:26;2.47;;;1.60;;
21816;SDS011;13247;47.504;7.382;2023-03-21T16:43:16;2.78;;;1.65;;
21816;SDS011;13247;47.504;7.382;2023-03-21T16:46:01;9.02;;;1.42;;
21816;SDS011;13247;47.504;7.382;2023-03-21T16:48:46;2.28;;;1.30;;
21816;SDS011;13247;47.504;7.382;2023-03-21T16:51:34;1.90;;;1.30;;
21816;SDS011;13247;47.504;7.382;2023-03-21T16:54:20;2.47;;;1.38;;
21816;SDS011;13247;47.504;7.382;2023-03-21T16:57:06;3.72;;;1.50;;
21816;SDS011;13247;47.504;7.382;2023-03-21T17:00:05;4.68;;;1.15;;
21816;SDS011;13247;47.504;7.382;2023-03-21T17:02:54;1.38;;;1.27;;
21816;SDS011;13247;47.504;7.382;2023-03-21T17:05:41;1.55;;;1.45;;
21816;SDS011;13247;47.504;7.382;2023-03-21T17:08:26;3.67;;;1.85;;
21816;SDS011;13247;47.504;7.382;2023-03-21T17:11:14;4.57;;;2.83;;
21816;SDS011;13247;47.504;7.382;2023-03-21T17:14:02;4.00;;;1.67;;
21816;SDS011;13247;47.504;7.382;2023-03-21T17:16:46;5.63;;;1.73;;
21816;SDS011;13247;47.504;7.382;2023-03-21T17:19:31;2.63;;;1.77;;
21816;SDS011;13247;47.504;7.382;2023-03-21T17:22:16;3.40;;;2.00;;
21816;SDS011;13247;47.504;7.382;2023-03-21T17:25:01;2.28;;;1.75;;
21816;SDS011;13247;47.504;7.382;2023-03-21T17:27:46;2.80;;;1.55;;
21816;SDS011;13247;47.504;7.382;2023-03-21T17:30:32;3.38;;;1.67;;
21816;SDS011;13247;47.504;7.382;2023-03-21T17:33:18;1.98;;;1.73;;
21816;SDS011;13247;47.504;7.382;2023-03-21T17:36:03;3.20;;;1.52;;
21816;SDS011;13247;47.504;7.382;2023-03-21T17:38:48;4.65;;;2.85;;
21816;SDS011;13247;47.504;7.382;2023-03-21T17:41:35;8.73;;;4.50;;
21816;SDS011;13247;47.504;7.382;2023-03-21T17:44:20;10.10;;;4.10;;
21816;SDS011;13247;47.504;7.382;2023-03-21T17:47:05;8.75;;;4.68;;
21816;SDS011;13247;47.504;7.382;2023-03-21T17:49:50;11.35;;;4.82;;
21816;SDS011;13247;47.504;7.382;2023-03-21T17:52:35;7.50;;;3.90;;
21816;SDS011;13247;47.504;7.382;2023-03-21T17:55:20;7.32;;;4.00;;
21816;SDS011;13247;47.504;7.382;2023-03-21T17:58:05;4.20;;;2.55;;
21816;SDS011;13247;47.504;7.382;2023-03-21T18:00:49;5.25;;;2.58;;
21816;SDS011;13247;47.504;7.382;2023-03-21T18:03:34;2.83;;;2.10;;
21816;SDS011;13247;47.504;7.382;2023-03-21T18:06:19;3.65;;;2.33;;
21816;SDS011;13247;47.504;7.382;2023-03-21T18:09:05;2.10;;;1.90;;
21816;SDS011;13247;47.504;7.382;2023-03-21T18:11:53;3.95;;;1.83;;
21816;SDS011;13247;47.504;7.382;2023-03-21T18:14:38;3.97;;;2.17;;
21816;SDS011;13247;47.504;7.382;2023-03-21T18:17:23;2.90;;;1.95;;